Time;durP1;ratioP1;P1;durP2;ratioP2;P2;SDS_P1;SDS_P2;PMS_P1;PMS_P2;Temp;Humidity;BMP_temperature;BMP_pressure;BME280_temperature;BME280_humidity;BME280_pressure;Samples;Min_cycle;Max_cycle;Signal;HPM_P1;HPM_P2
2023/10/22 00:01:33;;;;;;;1.30;0.50;;;;;;;;;;20638040;28;20211;-65
2023/10/22 00:11:35;;;;;;;0.57;0.50;;;;;;;;;;20654619;28;20277;-65
2023/10/22 00:21:37;;;;;;;0.83;0.47;;;;;;;;;;20622497;28;20274;-65
2023/10/22 00:31:39;;;;;;;2.03;0.50;;;;;;;;;;20614003;28;20282;-65
2023/10/22 00:41:41;;;;;;;2.57;0.70;;;;;;;;;;20636502;28;20268;-65
2023/10/22 00:51:43;;;;;;;0.77;0.57;;;;;;;;;;20668582;28;20273;-65
2023/10/22 01:01:45;;;;;;;1.27;0.30;;;;;;;;;;20635381;28;20687;-65
2023/10/22 01:11:59;;;;;;;0.37;0.30;;;;;;;;;;20626013;28;20224;-65
2023/10/22 01:22:01;;;;;;;0.70;0.37;;;;;;;;;;20662628;28;20270;-65
2023/10/22 01:32:04;;;;;;;0.33;0.33;;;;;;;;;;20775628;22;20222;-69
2023/10/22 01:42:06;;;;;;;0.90;0.50;;;;;;;;;;20797170;28;20280;-68
2023/10/22 01:52:08;;;;;;;0.80;0.37;;;;;;;;;;20804086;28;20308;-69
2023/10/22 02:02:11;;;;;;;1.23;0.40;;;;;;;;;;20809464;28;20230;-68
2023/10/22 02:12:13;;;;;;;0.67;0.30;;;;;;;;;;20792538;28;20316;-69
2023/10/22 02:22:16;;;;;;;2.50;0.53;;;;;;;;;;20784169;28;20222;-68
2023/10/22 02:32:18;;;;;;;1.10;0.40;;;;;;;;;;20808789;28;20590;-69
2023/10/22 02:42:19;;;;;;;0.80;0.40;;;;;;;;;;20786075;28;20221;-69
2023/10/22 02:52:21;;;;;;;3.03;0.50;;;;;;;;;;20803512;28;20677;-69
2023/10/22 03:02:23;;;;;;;0.80;0.40;;;;;;;;;;20805342;28;20658;-68
2023/10/22 03:12:25;;;;;;;1.10;0.70;;;;;;;;;;20807018;28;20280;-68
2023/10/22 03:22:27;;;;;;;0.70;0.60;;;;;;;;;;20776583;28;20221;-68
2023/10/22 03:32:30;;;;;;;1.30;1.03;;;;;;;;;;20803860;28;20283;-68
2023/10/22 03:42:32;;;;;;;0.73;0.50;;;;;;;;;;20787091;28;20552;-68
2023/10/22 03:52:35;;;;;;;0.60;0.40;;;;;;;;;;20802290;28;20222;-68
2023/10/22 04:02:37;;;;;;;1.17;0.60;;;;;;;;;;20786027;28;20264;-68
2023/10/22 04:12:38;;;;;;;1.50;0.30;;;;;;;;;;20794408;28;20214;-68
2023/10/22 04:22:44;;;;;;;1.97;0.53;;;;;;;;;;20768240;28;20219;-68
2023/10/22 04:32:47;;;;;;;1.20;0.53;;;;;;;;;;20784811;28;20713;-68
2023/10/22 04:42:48;;;;;;;4.73;0.97;;;;;;;;;;20784331;28;20284;-68
2023/10/22 04:52:51;;;;;;;0.60;0.37;;;11.30;99.90;;;;;;20783930;28;20233;-68
2023/10/22 05:02:53;;;;;;;1.17;0.50;;;;;;;;;;20781088;28;20207;-68
2023/10/22 05:12:55;;;;;;;1.23;0.33;;;;;;;;;;20766449;28;20222;-68
2023/10/22 05:22:58;;;;;;;1.57;0.50;;;;;;;;;;20789523;28;20821;-68
2023/10/22 05:33:01;;;;;;;1.37;0.50;;;;;;;;;;20812897;28;20249;-68
2023/10/22 05:43:03;;;;;;;2.30;0.43;;;;;;;;;;20798793;28;20210;-68
2023/10/22 05:53:04;;;;;;;0.50;0.37;;;;;;;;;;20795039;28;20226;-68
2023/10/22 06:03:07;;;;;;;2.93;0.47;;;;;;;;;;20794911;28;20244;-68
2023/10/22 06:13:09;;;;;;;0.90;0.40;;;;;;;;;;20790257;28;20763;-68
2023/10/22 06:23:11;;;;;;;0.80;0.40;;;;;;;;;;20825095;28;20276;-68
2023/10/22 06:33:13;;;;;;;2.60;0.63;;;;;;;;;;20792599;28;20223;-68
2023/10/22 06:43:14;;;;;;;1.40;0.50;;;;;;;;;;20790477;28;20210;-68
2023/10/22 06:53:16;;;;;;;2.43;0.40;;;;;;;;;;20807422;28;20253;-68
2023/10/22 07:03:18;;;;;;;1.50;0.50;;;;;;;;;;20790347;28;20678;-68
2023/10/22 07:13:20;;;;;;;1.07;0.60;;;;;;;;;;20790935;28;20759;-68
2023/10/22 07:23:22;;;;;;;1.30;0.30;;;;;;;;;;20789029;28;20630;-68
2023/10/22 07:33:27;;;;;;;2.03;0.60;;;;;;;;;;20788625;28;20223;-68
2023/10/22 07:43:29;;;;;;;0.50;0.47;;;;;;;;;;20579053;23;20236;-89
2023/10/22 07:53:31;;;;;;;1.70;0.50;;;;;;;;;;20558853;28;20294;-89
2023/10/22 08:03:33;;;;;;;1.30;0.50;;;;;;;;;;20548932;28;20263;-88
2023/10/22 08:13:35;;;;;;;0.83;0.40;;;;;;;;;;20568705;28;20216;-90
2023/10/22 08:23:40;;;;;;;1.67;0.60;;;;;;;;;;20570051;28;20799;-89
2023/10/22 08:33:41;;;;;;;1.40;0.70;;;;;;;;;;20556653;28;20295;-89
2023/10/22 08:43:48;;;;;;;1.70;0.60;;;;;;;;;;20547325;28;20268;-88
2023/10/22 08:53:50;;;;;;;5.27;0.70;;;;;;;;;;20597830;28;20236;-89
2023/10/22 09:03:53;;;;;;;1.20;0.50;;;;;;;;;;20547598;28;20212;-88
2023/10/22 09:13:54;;;;;;;1.40;0.67;;;;;;;;;;20594923;28;20698;-89
2023/10/22 09:24:04;;;;;;;2.07;0.63;;;;;;;;;;20593553;28;20558;-88
2023/10/22 09:34:24;;;;;;;3.10;0.80;;;;;;;;;;20556586;28;20808;-89
2023/10/22 09:44:29;;;;;;;4.53;0.70;;;;;;;;;;20579615;28;20216;-91
2023/10/22 09:54:38;;;;;;;2.53;0.67;;;;;;;;;;20705768;28;20235;-90
2023/10/22 10:04:40;;;;;;;2.47;0.80;;;;;;;;;;20750838;28;20223;-89
2023/10/22 10:25:26;;;;;;;2.03;0.50;;;15.70;99.90;;;;;;21264324;27;20577;-70
2023/10/22 10:35:29;;;;;;;4.03;1.07;;;;;;;;;;21155832;27;20223;-70
2023/10/22 10:45:30;;;;;;;1.43;0.70;;;;;;;;;;21154999;27;20539;-70
2023/10/22 10:55:32;;;;;;;3.67;1.00;;;;;;;;;;21166718;27;20216;-70
2023/10/22 11:05:45;;;;;;;4.37;1.07;;;15.10;99.90;;;;;;21195583;27;20203;-71
2023/10/22 11:15:50;;;;;;;2.73;0.97;;;15.10;99.90;;;;;;21136461;27;20223;-70
2023/10/22 11:25:52;;;;;;;2.17;0.80;;;;;;;;;;21126815;27;20241;-69
2023/10/22 11:35:56;;;;;;;1.83;0.70;;;;;;;;;;21109254;28;20524;-71
2023/10/22 11:45:58;;;;;;;1.60;0.80;;;;;;;;;;21076669;28;20338;-70
2023/10/22 11:56:00;;;;;;;1.50;0.70;;;;;;;;;;21084221;28;20215;-70
2023/10/22 12:06:02;;;;;;;3.17;0.80;;;;;;;;;;21115096;28;20211;-70
2023/10/22 12:16:04;;;;;;;2.53;0.57;;;;;;;;;;21066029;28;20300;-71
2023/10/22 12:26:12;;;;;;;1.57;0.53;;;16.70;99.90;;;;;;21100988;28;20743;-70
2023/10/22 12:36:14;;;;;;;1.70;0.70;;;;;;;;;;21106081;28;20979;-70
2023/10/22 12:46:17;;;;;;;2.50;0.80;;;;;;;;;;21057434;28;20216;-70
2023/10/22 12:56:19;;;;;;;1.70;0.73;;;;;;;;;;21106094;28;20216;-70
2023/10/22 13:06:21;;;;;;;2.07;0.50;;;;;;;;;;21070602;28;20296;-71
2023/10/22 13:16:23;;;;;;;2.17;0.60;;;;;;;;;;21060045;28;20220;-71
2023/10/22 13:26:25;;;;;;;2.30;0.60;;;;;;;;;;21115695;28;20216;-71
2023/10/22 13:36:27;;;;;;;1.30;0.40;;;;;;;;;;21054161;22;20229;-69
2023/10/22 13:46:29;;;;;;;2.33;0.43;;;;;;;;;;20934148;28;20274;-69
2023/10/22 13:56:33;;;;;;;1.53;0.30;;;;;;;;;;20946246;28;20691;-69
2023/10/22 14:06:36;;;;;;;2.43;0.57;;;;;;;;;;20969952;28;20220;-69
2023/10/22 14:16:39;;;;;;;1.47;0.50;;;;;;;;;;20961955;28;20221;-69
2023/10/22 14:26:40;;;;;;;0.93;0.40;;;;;;;;;;20959892;28;20208;-71
2023/10/22 14:36:42;;;;;;;1.67;0.50;;;;;;;;;;20957610;28;20217;-69
2023/10/22 14:46:44;;;;;;;1.43;0.50;;;;;;;;;;20954575;28;20672;-70
2023/10/22 14:56:47;;;;;;;1.13;0.50;;;;;;;;;;20968181;28;20290;-69
2023/10/22 15:06:49;;;;;;;1.30;0.60;;;;;;;;;;20951572;28;20205;-70
2023/10/22 15:16:50;;;;;;;1.07;0.50;;;;;;;;;;20959157;28;20221;-69
2023/10/22 15:26:52;;;;;;;1.83;0.50;;;;;;;;;;20942569;28;20209;-70
2023/10/22 15:36:54;;;;;;;1.57;0.60;;;;;;;;;;20975502;28;20216;-69
2023/10/22 15:46:56;;;;;;;1.23;0.60;;;;;;;;;;20973896;28;20213;-69
2023/10/22 15:56:58;;;;;;;2.00;0.43;;;;;;;;;;20920716;28;20290;-69
2023/10/22 16:07:02;;;;;;;2.10;0.53;;;;;;;;;;20961867;28;20432;-69
2023/10/22 16:17:04;;;;;;;2.77;0.53;;;15.10;99.90;;;;;;20964582;28;20221;-70
2023/10/22 16:27:06;;;;;;;3.90;1.20;;;;;;;;;;20980973;28;20205;-69
2023/10/22 16:37:08;;;;;;;2.50;0.80;;;;;;;;;;20947490;28;20234;-70
2023/10/22 16:47:10;;;;;;;2.20;0.60;;;;;;;;;;20953346;28;20213;-70
2023/10/22 16:57:12;;;;;;;1.20;0.63;;;;;;;;;;20961445;28;20290;-70
2023/10/22 17:07:14;;;;;;;2.23;0.60;;;;;;;;;;20982935;28;20298;-70
2023/10/22 17:17:16;;;;;;;1.50;0.70;;;;;;;;;;20932741;28;20285;-70
2023/10/22 17:27:18;;;;;;;2.47;0.80;;;;;;;;;;20942501;28;20221;-70
2023/10/22 17:37:20;;;;;;;1.93;0.80;;;;;;;;;;20929305;28;20634;-70
2023/10/22 17:47:22;;;;;;;1.83;0.90;;;;;;;;;;20938400;28;20251;-70
2023/10/22 17:57:24;;;;;;;1.40;0.97;;;;;;;;;;20926114;28;20229;-70
2023/10/22 18:07:25;;;;;;;2.57;1.20;;;;;;;;;;20946510;28;20217;-70
2023/10/22 18:17:28;;;;;;;3.33;1.10;;;;;;;;;;20956446;28;20605;-69
2023/10/22 18:27:30;;;;;;;2.13;1.10;;;;;;;;;;20950896;28;20921;-69
2023/10/22 18:37:32;;;;;;;2.80;1.33;;;;;;;;;;20967397;28;20270;-68
2023/10/22 18:47:34;;;;;;;1.90;0.90;;;;;;;;;;20945028;28;20220;-69
2023/10/22 18:57:37;;;;;;;3.93;1.10;;;14.10;99.90;;;;;;20950005;28;20282;-69
2023/10/22 19:07:45;;;;;;;6.50;1.40;;;;;;;;;;20938682;28;20217;-69
2023/10/22 19:17:46;;;;;;;9.70;3.50;;;;;;;;;;20935920;28;20251;-68
2023/10/22 19:27:49;;;;;;;4.03;2.50;;;;;;;;;;20947076;28;20619;-70
2023/10/22 19:48:04;;;;;;;24.17;13.13;;;;;;;;;;21144763;27;20917;-71
2023/10/22 19:58:06;;;;;;;5.13;2.23;;;;;;;;;;21055213;28;20228;-69
2023/10/22 20:08:10;;;;;;;3.50;1.50;;;;;;;;;;21083905;28;20806;-70
2023/10/22 20:18:12;;;;;;;2.20;1.37;;;;;;;;;;21052755;28;20209;-71
2023/10/22 20:28:15;;;;;;;2.57;1.43;;;;;;;;;;21045175;28;20250;-71
2023/10/22 20:38:16;;;;;;;2.47;1.27;;;;;;;;;;21038951;28;20286;-71
2023/10/22 20:48:18;;;;;;;4.50;1.30;;;;;;;;;;21048593;28;20215;-71
2023/10/22 20:58:20;;;;;;;3.50;1.10;;;;;;;;;;21012885;28;20270;-71
2023/10/22 21:08:22;;;;;;;1.90;0.83;;;;;;;;;;21024176;28;20212;-71
2023/10/22 21:18:23;;;;;;;4.23;1.03;;;;;;;;;;21004071;28;20205;-71
2023/10/22 21:28:25;;;;;;;2.20;0.93;;;;;;;;;;20964400;28;20232;-70
2023/10/22 21:38:27;;;;;;;1.37;0.70;;;;;;;;;;20988938;28;20780;-71
2023/10/22 21:48:29;;;;;;;3.53;0.90;;;;;;;;;;20979551;28;20306;-72
2023/10/22 21:58:31;;;;;;;1.60;0.70;;;;;;;;;;21011686;28;20217;-71
2023/10/22 22:08:33;;;;;;;1.50;0.80;;;;;;;;;;21015891;28;20229;-70
2023/10/22 22:18:35;;;;;;;2.23;1.17;;;;;;;;;;20969628;28;20209;-71
2023/10/22 22:28:38;;;;;;;2.67;1.00;;;;;;;;;;20994080;28;20225;-70
2023/10/22 22:38:40;;;;;;;1.97;1.10;;;;;;;;;;20965929;28;20247;-71
2023/10/22 22:48:42;;;;;;;2.70;1.00;;;;;;;;;;20961847;28;20619;-70
2023/10/22 22:58:44;;;;;;;1.80;0.90;;;;;;;;;;20968260;28;20213;-71
2023/10/22 23:08:45;;;;;;;4.17;1.30;;;;;;;;;;20994553;28;20688;-71
2023/10/22 23:18:47;;;;;;;1.50;1.13;;;;;;;;;;20967044;28;20225;-70
2023/10/22 23:28:50;;;;;;;1.40;0.90;;;;;;;;;;20975568;28;20225;-70
2023/10/22 23:38:51;;;;;;;1.93;1.23;;;;;;;;;;20959117;28;20225;-70
2023/10/22 23:48:53;;;;;;;2.47;1.20;;;;;;;;;;20952582;28;20221;-70
2023/10/22 23:58:55;;;;;;;2.90;1.40;;;;;;;;;;20980008;28;20213;-70
